Time;durP1;ratioP1;P1;durP2;ratioP2;P2;SDS_P1;SDS_P2;PMS_P1;PMS_P2;Temp;Humidity;BMP_temperature;BMP_pressure;BME280_temperature;BME280_humidity;BME280_pressure;Samples;Min_cycle;Max_cycle;Signal;HPM_P1;HPM_P2
2023/01/28 00:01:58;;;;;;;12.63;7.47;;;30.80;99.90;;;;;;4995136;28;20568;-69
2023/01/28 00:04:25;;;;;;;12.88;7.45;;;31.20;99.90;;;;;;5012860;28;20194;-68
2023/01/28 00:06:53;;;;;;;10.60;7.50;;;32.30;99.90;;;;;;5012980;28;20201;-69
2023/01/28 00:09:20;;;;;;;12.32;7.38;;;32.90;99.90;;;;;;5012678;28;20184;-69
2023/01/28 00:11:47;;;;;;;14.05;7.57;;;32.80;99.90;;;;;;5012672;28;20570;-69
2023/01/28 00:14:15;;;;;;;11.75;7.85;;;32.60;99.90;;;;;;5012758;28;20590;-71
2023/01/28 00:16:42;;;;;;;10.55;6.72;;;31.90;99.90;;;;;;5012816;28;20632;-70
2023/01/28 00:19:10;;;;;;;14.85;6.70;;;32.30;99.90;;;;;;5012739;28;20594;-70
2023/01/28 00:21:37;;;;;;;14.30;6.93;;;32.50;99.90;;;;;;5012976;28;20742;-70
2023/01/28 00:24:05;;;;;;;18.05;7.50;;;33.00;99.90;;;;;;5012806;28;20237;-70
2023/01/28 00:26:33;;;;;;;13.60;7.43;;;32.90;99.90;;;;;;5012715;28;20597;-70
2023/01/28 00:29:00;;;;;;;10.50;7.57;;;32.70;99.90;;;;;;5012043;28;20714;-69
2023/01/28 00:31:28;;;;;;;11.77;7.97;;;32.70;99.90;;;;;;5012828;28;20174;-69
2023/01/28 00:33:56;;;;;;;10.40;7.60;;;32.90;99.90;;;;;;5012594;28;20656;-70
2023/01/28 00:36:25;;;;;;;10.95;8.02;;;33.60;99.90;;;;;;5012822;28;20235;-70
2023/01/28 00:38:58;;;;;;;10.80;7.65;;;33.20;99.90;;;;;;5014170;28;20181;-71
2023/01/28 00:41:28;;;;;;;12.65;7.28;;;33.80;99.90;;;;;;5016197;28;20193;-70
2023/01/28 00:43:55;;;;;;;12.75;7.85;;;34.20;99.90;;;;;;5016037;28;20634;-71
2023/01/28 00:46:25;;;;;;;12.15;7.53;;;34.10;99.90;;;;;;5016130;28;20182;-70
2023/01/28 00:48:52;;;;;;;9.27;7.10;;;34.00;99.90;;;;;;5015787;28;20272;-70
2023/01/28 00:54:41;;;;;;;10.23;7.40;;;34.20;99.90;;;;;;5015489;28;20253;-70
2023/01/28 00:57:09;;;;;;;11.00;7.90;;;34.10;99.90;;;;;;4998308;28;20190;-70
2023/01/28 00:59:36;;;;;;;12.27;9.18;;;33.50;99.90;;;;;;4997926;28;20546;-70
2023/01/28 01:02:11;;;;;;;12.73;7.75;;;33.60;99.90;;;;;;5015558;28;20561;-70
2023/01/28 01:04:39;;;;;;;16.27;8.43;;;33.80;99.90;;;;;;5015473;28;20185;-70
2023/01/28 01:07:07;;;;;;;13.27;7.55;;;34.50;99.90;;;;;;4997893;28;20182;-70
2023/01/28 01:09:34;;;;;;;13.27;8.68;;;34.70;99.90;;;;;;5015471;28;20663;-70
2023/01/28 01:12:01;;;;;;;10.20;7.07;;;35.10;99.90;;;;;;5015439;28;20188;-70
2023/01/28 01:14:29;;;;;;;8.95;7.20;;;34.60;99.90;;;;;;5015246;28;20236;-70
2023/01/28 01:16:56;;;;;;;12.73;7.72;;;34.30;99.90;;;;;;5015411;28;20178;-70
2023/01/28 01:19:24;;;;;;;11.48;8.23;;;34.10;99.90;;;;;;5015005;28;20277;-70
2023/01/28 01:21:52;;;;;;;12.63;7.35;;;34.20;99.90;;;;;;5015338;28;20174;-70
2023/01/28 01:24:19;;;;;;;12.30;8.13;;;34.50;99.90;;;;;;5015191;28;20205;-70
2023/01/28 01:26:46;;;;;;;13.50;8.27;;;34.80;99.90;;;;;;5014956;28;20364;-70
2023/01/28 01:29:14;;;;;;;10.85;7.40;;;34.70;99.90;;;;;;5015001;28;20186;-70
2023/01/28 01:31:42;;;;;;;11.32;7.50;;;34.40;99.90;;;;;;4997375;28;20181;-69
2023/01/28 01:34:10;;;;;;;11.02;6.82;;;34.50;99.90;;;;;;4995732;28;20556;-77
2023/01/28 01:36:37;;;;;;;13.15;7.70;;;34.70;99.90;;;;;;4996305;28;20252;-77
2023/01/28 01:39:05;;;;;;;9.43;6.65;;;35.30;99.90;;;;;;4992774;28;20189;-71
2023/01/28 01:41:33;;;;;;;11.48;7.30;;;35.50;99.90;;;;;;5009827;28;20232;-77
2023/01/28 01:44:03;;;;;;;9.20;6.55;;;35.60;99.90;;;;;;5012919;28;20224;-75
2023/01/28 01:46:49;;;;;;;7.80;6.78;;;36.00;99.90;;;;;;5013096;28;20233;-74
2023/01/28 01:49:25;;;;;;;7.38;6.20;;;36.70;99.90;;;;;;5013176;28;20640;-75
2023/01/28 01:52:02;;;;;;;12.98;6.65;;;37.10;99.90;;;;;;5013430;28;20189;-76
2023/01/28 01:54:31;;;;;;;7.50;6.35;;;36.90;99.90;;;;;;5013116;28;20238;-74
2023/01/28 01:57:00;;;;;;;6.47;5.80;;;36.90;99.90;;;;;;5013251;28;20273;-76
2023/01/28 01:59:32;;;;;;;10.20;6.57;;;36.70;99.90;;;;;;5013380;28;20178;-73
2023/01/28 02:02:03;;;;;;;8.13;6.88;;;36.80;99.90;;;;;;5013069;28;20178;-75
2023/01/28 02:04:35;;;;;;;9.68;6.85;;;36.60;99.90;;;;;;5013387;28;20363;-75
2023/01/28 02:07:03;;;;;;;11.55;7.10;;;36.90;99.90;;;;;;5013093;28;20185;-75
2023/01/28 02:09:35;;;;;;;10.63;7.75;;;36.70;99.90;;;;;;5010282;28;20178;-76
2023/01/28 02:15:28;;;;;;;10.15;7.13;;;35.60;99.90;;;;;;5009420;28;20252;-75
2023/01/28 02:17:57;;;;;;;8.70;5.85;;;36.00;99.90;;;;;;5013231;28;20269;-75
2023/01/28 02:21:05;;;;;;;9.98;7.07;;;36.40;99.90;;;;;;5012586;28;20178;-76
2023/01/28 02:24:24;;;;;;;8.73;6.25;;;36.40;99.90;;;;;;4968418;28;20248;-74
2023/01/28 02:27:07;;;;;;;8.40;6.32;;;37.10;99.90;;;;;;4986859;28;20683;-73
2023/01/28 02:30:41;;;;;;;7.85;6.63;;;37.80;99.90;;;;;;5012976;28;20201;-75
2023/01/28 02:33:18;;;;;;;12.68;7.57;;;37.90;99.90;;;;;;4951768;29;20651;-75
2023/01/28 02:35:54;;;;;;;11.80;7.68;;;37.50;99.90;;;;;;4941376;29;20271;-75
2023/01/28 02:38:39;;;;;;;7.65;6.82;;;37.20;99.90;;;;;;4982985;28;20194;-74
2023/01/28 02:41:13;;;;;;;11.98;7.13;;;37.20;99.90;;;;;;4995166;28;20295;-75
2023/01/28 02:43:45;;;;;;;10.18;6.78;;;36.80;99.90;;;;;;4993552;28;20330;-75
2023/01/28 02:49:53;;;;;;;8.35;7.13;;;37.00;99.90;;;;;;5012723;28;20181;-75
2023/01/28 02:53:46;;;;;;;8.65;7.03;;;37.10;99.90;;;;;;4994501;28;20717;-75
2023/01/28 02:56:06;;;;;;;7.55;6.38;;;37.50;99.90;;;;;;4999416;28;20651;-70
2023/01/28 02:59:29;;;;;;;10.38;7.47;;;37.50;99.90;;;;;;4993167;28;20273;-72
2023/01/28 03:01:57;;;;;;;9.40;7.03;;;37.50;99.90;;;;;;4992057;28;20809;-71
2023/01/28 03:05:12;;;;;;;11.85;7.18;;;37.50;99.90;;;;;;5004487;28;20260;-73
2023/01/28 03:07:40;;;;;;;8.55;6.80;;;37.50;99.90;;;;;;5003931;28;20232;-72
2023/01/28 03:10:12;;;;;;;8.52;7.65;;;37.40;99.90;;;;;;5012333;28;20182;-74
2023/01/28 03:38:57;;;;;;;12.23;8.35;;;36.70;99.90;;;;;;5009849;28;20220;-72
2023/01/28 03:41:26;;;;;;;13.25;7.55;;;36.40;99.90;;;;;;4994148;28;20186;-76
2023/01/28 03:43:54;;;;;;;13.70;7.35;;;36.50;99.90;;;;;;5011495;28;20248;-76
2023/01/28 03:46:22;;;;;;;13.40;6.13;;;36.70;99.90;;;;;;5010746;28;20178;-74
2023/01/28 03:48:50;;;;;;;13.10;5.68;;;36.60;99.90;;;;;;5010999;28;20182;-75
2023/01/28 03:51:17;;;;;;;11.15;5.57;;;36.20;99.90;;;;;;5011201;28;20185;-74
2023/01/28 03:53:44;;;;;;;9.68;5.38;;;36.20;99.90;;;;;;5011857;28;20232;-73
2023/01/28 03:56:17;;;;;;;11.93;5.68;;;36.10;99.90;;;;;;5011935;28;20202;-76
2023/01/28 03:58:55;;;;;;;12.60;5.80;;;36.00;99.90;;;;;;5011022;28;20186;-74
2023/01/28 04:01:23;;;;;;;9.15;5.13;;;36.10;99.90;;;;;;4994009;28;20249;-76
2023/01/28 04:03:50;;;;;;;13.23;5.03;;;36.30;99.90;;;;;;5011723;28;20592;-74
2023/01/28 04:06:18;;;;;;;8.35;5.22;;;36.00;99.90;;;;;;5010439;28;20182;-72
2023/01/28 04:08:51;;;;;;;9.68;4.80;;;35.80;99.90;;;;;;5011548;28;20186;-74
2023/01/28 04:11:20;;;;;;;8.30;3.90;;;35.70;99.90;;;;;;5011824;28;20221;-74
2023/01/28 04:13:48;;;;;;;8.02;4.20;;;35.40;99.90;;;;;;5014274;28;20189;-76
2023/01/28 04:16:17;;;;;;;8.77;4.70;;;35.20;99.90;;;;;;5014494;28;20728;-72
2023/01/28 04:18:45;;;;;;;7.28;4.38;;;35.30;99.90;;;;;;4994954;28;20183;-78
2023/01/28 04:21:12;;;;;;;10.05;4.30;;;35.50;99.90;;;;;;4994798;28;20175;-76
2023/01/28 04:23:40;;;;;;;9.48;4.60;;;35.60;99.90;;;;;;4995146;28;20754;-74
2023/01/28 04:26:07;;;;;;;12.25;4.40;;;35.70;99.90;;;;;;4995071;28;20333;-77
2023/01/28 04:28:35;;;;;;;8.00;4.10;;;35.80;99.90;;;;;;5013247;28;20238;-76
2023/01/28 04:31:02;;;;;;;8.45;3.85;;;35.90;99.90;;;;;;4997125;28;20197;-77
2023/01/28 04:33:30;;;;;;;11.65;3.83;;;35.80;99.90;;;;;;5014383;28;21090;-76
2023/01/28 04:35:57;;;;;;;8.63;3.97;;;35.80;99.90;;;;;;5013642;28;20209;-76
2023/01/28 04:38:24;;;;;;;10.18;3.33;;;35.70;99.90;;;;;;5014696;28;20189;-76
2023/01/28 04:40:53;;;;;;;9.32;3.72;;;35.20;99.90;;;;;;5014213;28;20635;-75
2023/01/28 04:43:20;;;;;;;8.27;3.58;;;34.90;99.90;;;;;;5014030;28;20213;-76
2023/01/28 04:45:48;;;;;;;6.72;3.38;;;35.20;99.90;;;;;;5014005;28;20269;-75
2023/01/28 04:48:16;;;;;;;9.82;3.58;;;35.00;99.90;;;;;;5010923;28;20235;-76
2023/01/28 04:50:44;;;;;;;12.82;3.78;;;35.00;99.90;;;;;;5014323;28;20181;-76
2023/01/28 04:53:12;;;;;;;12.02;4.65;;;35.10;99.90;;;;;;5019014;28;20174;-76
2023/01/28 04:55:39;;;;;;;6.82;3.42;;;35.00;99.90;;;;;;5016270;28;20189;-77
2023/01/28 04:58:07;;;;;;;8.23;3.17;;;34.70;99.90;;;;;;5013302;28;20189;-78
2023/01/28 05:00:35;;;;;;;12.52;3.42;;;34.60;99.90;;;;;;5014275;28;20178;-77
2023/01/28 05:03:02;;;;;;;6.50;2.83;;;34.70;99.90;;;;;;5014025;28;20205;-77
2023/01/28 05:05:29;;;;;;;11.45;3.03;;;34.90;99.90;;;;;;5013507;28;20635;-77
2023/01/28 05:07:58;;;;;;;5.65;2.70;;;34.90;99.90;;;;;;5013400;28;20186;-78
2023/01/28 05:10:27;;;;;;;8.50;2.63;;;34.50;99.90;;;;;;5014107;28;20711;-77
2023/01/28 05:12:54;;;;;;;12.90;2.85;;;34.50;99.90;;;;;;5013357;28;20269;-76
2023/01/28 05:15:22;;;;;;;7.72;2.92;;;34.70;99.90;;;;;;5013857;28;20261;-76
2023/01/28 05:17:49;;;;;;;13.20;2.83;;;35.00;99.90;;;;;;5013128;28;20182;-75
2023/01/28 05:20:16;;;;;;;9.07;3.25;;;35.00;99.90;;;;;;5013347;28;20186;-75
2023/01/28 05:22:44;;;;;;;7.45;3.03;;;34.90;99.90;;;;;;5013669;28;20197;-76
2023/01/28 05:25:11;;;;;;;9.32;2.42;;;34.90;99.90;;;;;;4995458;28;20190;-77
2023/01/28 05:27:39;;;;;;;8.40;2.75;;;34.80;99.90;;;;;;5012608;28;20298;-77
2023/01/28 05:30:07;;;;;;;6.70;2.60;;;35.00;99.90;;;;;;5013303;28;20662;-77
2023/01/28 05:32:34;;;;;;;8.05;2.45;;;34.90;99.90;;;;;;4996003;28;20185;-77
2023/01/28 05:35:02;;;;;;;7.65;2.63;;;35.10;99.90;;;;;;5012726;28;20658;-75
2023/01/28 05:37:29;;;;;;;9.32;2.60;;;35.30;99.90;;;;;;4994423;28;20213;-77
2023/01/28 05:39:56;;;;;;;7.07;2.63;;;35.10;99.90;;;;;;5012755;28;20188;-76
2023/01/28 05:42:24;;;;;;;6.65;2.60;;;35.00;99.90;;;;;;5012679;28;20174;-77
2023/01/28 05:44:51;;;;;;;6.70;2.33;;;34.90;99.90;;;;;;4995085;28;20186;-75
2023/01/28 05:47:19;;;;;;;6.40;2.65;;;34.80;99.90;;;;;;4995043;28;20232;-75
2023/01/28 05:49:46;;;;;;;6.28;2.47;;;35.00;99.90;;;;;;4994677;28;20186;-76
2023/01/28 05:52:13;;;;;;;8.80;2.72;;;34.90;99.90;;;;;;5013172;28;20658;-76
2023/01/28 05:54:41;;;;;;;7.88;2.33;;;34.80;99.90;;;;;;5013168;28;20209;-77
2023/01/28 05:57:08;;;;;;;10.73;2.85;;;34.80;99.90;;;;;;4994536;28;20272;-75
2023/01/28 05:59:36;;;;;;;8.60;2.28;;;34.70;99.90;;;;;;4994982;28;20493;-75
2023/01/28 06:02:03;;;;;;;12.10;2.75;;;34.50;99.90;;;;;;4995282;28;20603;-75
2023/01/28 06:04:30;;;;;;;4.28;2.13;;;34.40;99.90;;;;;;4994323;28;20245;-76
2023/01/28 06:06:58;;;;;;;6.53;2.40;;;34.30;99.90;;;;;;5012403;28;20257;-75
2023/01/28 06:09:25;;;;;;;5.03;2.00;;;34.30;99.90;;;;;;5012288;28;20285;-78
2023/01/28 06:11:53;;;;;;;11.27;2.80;;;34.10;99.90;;;;;;5009763;28;20591;-75
2023/01/28 06:14:20;;;;;;;8.35;2.10;;;33.90;99.90;;;;;;5012133;28;20181;-76
2023/01/28 06:16:49;;;;;;;5.22;2.20;;;34.00;99.90;;;;;;5012359;28;20186;-75
2023/01/28 06:19:16;;;;;;;6.15;2.30;;;33.90;99.90;;;;;;4994543;28;20182;-75
2023/01/28 06:21:43;;;;;;;10.05;2.10;;;33.90;99.90;;;;;;5012143;28;20631;-75
2023/01/28 06:24:11;;;;;;;5.13;1.88;;;34.00;99.90;;;;;;5012609;28;20289;-77
2023/01/28 06:26:38;;;;;;;6.95;2.20;;;34.00;99.90;;;;;;5011787;28;20186;-75
2023/01/28 06:29:06;;;;;;;4.13;1.95;;;34.00;99.90;;;;;;5011768;28;20240;-77
2023/01/28 06:31:33;;;;;;;9.18;1.65;;;34.00;99.90;;;;;;5012069;28;20260;-77
2023/01/28 06:34:01;;;;;;;5.13;2.13;;;34.20;99.90;;;;;;4994142;28;20198;-75
2023/01/28 06:36:28;;;;;;;5.22;2.05;;;34.00;99.90;;;;;;5011479;28;20192;-77
2023/01/28 06:38:56;;;;;;;12.43;2.25;;;34.00;99.90;;;;;;5012793;28;20178;-76
2023/01/28 06:41:23;;;;;;;6.35;2.10;;;33.90;99.90;;;;;;4997433;28;20193;-77
2023/01/28 06:43:51;;;;;;;9.38;2.47;;;33.60;99.90;;;;;;5016490;28;20231;-77
2023/01/28 06:46:18;;;;;;;7.25;1.92;;;33.60;99.90;;;;;;4994403;28;20189;-76
2023/01/28 06:48:45;;;;;;;4.15;1.77;;;33.50;99.90;;;;;;4993240;28;20193;-75
2023/01/28 06:51:13;;;;;;;5.70;1.83;;;33.70;99.90;;;;;;5011640;28;20683;-77
2023/01/28 06:53:40;;;;;;;10.10;2.20;;;33.20;99.90;;;;;;5011706;28;20307;-80
2023/01/28 06:56:08;;;;;;;5.95;1.77;;;33.20;99.90;;;;;;5012006;28;20229;-76
2023/01/28 06:58:35;;;;;;;7.85;2.05;;;33.00;99.90;;;;;;5011409;28;20196;-76
2023/01/28 07:01:03;;;;;;;9.45;2.58;;;33.00;99.90;;;;;;4994346;28;20537;-75
2023/01/28 07:03:30;;;;;;;7.45;2.10;;;32.80;99.90;;;;;;5011450;28;20210;-76
2023/01/28 07:05:58;;;;;;;8.07;2.20;;;32.60;99.90;;;;;;4993291;28;20186;-75
2023/01/28 07:08:25;;;;;;;7.35;2.38;;;32.60;99.90;;;;;;5011222;28;20181;-77
2023/01/28 07:17:40;;;;;;;8.93;2.17;;;32.20;99.90;;;;;;5011925;28;20227;-79
2023/01/28 07:20:09;;;;;;;10.30;2.33;;;32.00;99.90;;;;;;4995014;28;20272;-79
2023/01/28 07:22:39;;;;;;;10.27;2.63;;;31.80;99.90;;;;;;5011871;28;20185;-78
2023/01/28 07:25:08;;;;;;;11.18;2.55;;;31.80;99.90;;;;;;5012273;28;20661;-79
2023/01/28 07:27:36;;;;;;;11.30;2.93;;;31.90;99.90;;;;;;5012184;28;20214;-77
2023/01/28 07:30:04;;;;;;;6.82;2.35;;;31.90;99.90;;;;;;5009760;28;20197;-78
2023/01/28 07:32:32;;;;;;;6.83;2.50;;;32.00;99.90;;;;;;5012695;28;20184;-79
2023/01/28 07:34:59;;;;;;;7.53;2.00;;;31.90;99.90;;;;;;5012452;28;20248;-78
2023/01/28 07:37:26;;;;;;;6.63;2.37;;;31.70;99.90;;;;;;5012441;28;20193;-77
2023/01/28 07:43:16;;;;;;;6.93;2.27;;;31.50;99.90;;;;;;4992303;28;20260;-76
2023/01/28 07:45:43;;;;;;;6.50;2.60;;;31.50;99.90;;;;;;5001279;28;20323;-79
2023/01/28 07:48:15;;;;;;;6.32;2.45;;;31.40;99.90;;;;;;5014524;28;20206;-78
2023/01/28 07:50:43;;;;;;;9.35;2.45;;;31.40;99.90;;;;;;5016557;28;20174;-77
2023/01/28 07:53:12;;;;;;;11.50;2.77;;;31.40;99.90;;;;;;5018277;28;20304;-78
2023/01/28 07:55:39;;;;;;;7.17;2.30;;;31.40;99.90;;;;;;5016480;28;20666;-76
2023/01/28 07:58:10;;;;;;;7.25;2.25;;;31.30;99.90;;;;;;5016174;28;20205;-77
2023/01/28 08:00:38;;;;;;;15.07;3.50;;;31.30;99.90;;;;;;5016465;28;20178;-77
2023/01/28 08:03:13;;;;;;;11.40;2.80;;;31.20;99.90;;;;;;5015780;28;20214;-78
2023/01/28 08:05:52;;;;;;;12.15;3.03;;;31.10;99.90;;;;;;5015933;28;20264;-78
2023/01/28 08:08:19;;;;;;;10.23;2.87;;;31.00;99.90;;;;;;5016070;28;20188;-77
2023/01/28 08:10:47;;;;;;;10.27;3.07;;;30.90;99.90;;;;;;5016255;28;20624;-78
2023/01/28 08:13:15;;;;;;;5.33;1.90;;;30.80;99.90;;;;;;5016160;28;20177;-78
2023/01/28 08:15:43;;;;;;;8.73;2.43;;;30.70;99.90;;;;;;5015729;28;20265;-77
2023/01/28 08:18:12;;;;;;;13.43;2.90;;;30.60;99.90;;;;;;4998247;28;20189;-76
2023/01/28 08:20:42;;;;;;;8.33;2.67;;;30.60;99.90;;;;;;5015970;28;20267;-77
2023/01/28 08:23:21;;;;;;;12.20;2.60;;;30.50;99.90;;;;;;5015735;28;20288;-77
2023/01/28 08:25:49;;;;;;;7.50;3.23;;;30.50;99.90;;;;;;5015765;28;20584;-78
2023/01/28 08:28:17;;;;;;;5.60;2.23;;;30.50;99.90;;;;;;5015642;28;20241;-78
2023/01/28 08:30:44;;;;;;;12.50;2.63;;;30.40;99.90;;;;;;5004593;28;20551;-77
2023/01/28 08:33:14;;;;;;;10.40;2.67;;;30.30;99.90;;;;;;4998890;28;20185;-74
2023/01/28 08:35:41;;;;;;;9.43;2.67;;;30.30;99.90;;;;;;5017163;28;20646;-78
2023/01/28 08:38:10;;;;;;;11.70;2.80;;;30.20;99.90;;;;;;5017241;28;20182;-76
2023/01/28 08:40:37;;;;;;;10.17;2.20;;;30.20;99.90;;;;;;5015827;28;20189;-77
2023/01/28 08:43:05;;;;;;;9.97;2.83;;;30.10;99.90;;;;;;5015250;28;20213;-77
2023/01/28 08:45:33;;;;;;;8.47;2.50;;;30.00;99.90;;;;;;5013920;28;20248;-76
2023/01/28 08:48:06;;;;;;;10.77;2.73;;;30.00;99.90;;;;;;5000905;28;20179;-76
2023/01/28 08:50:36;;;;;;;12.30;3.07;;;29.90;99.90;;;;;;5014104;28;20186;-77
2023/01/28 08:53:06;;;;;;;7.67;2.60;;;29.90;99.90;;;;;;5015610;28;20178;-78
2023/01/28 08:55:35;;;;;;;10.73;2.47;;;29.80;99.90;;;;;;4997883;28;20181;-78
2023/01/28 08:58:04;;;;;;;10.73;2.97;;;29.80;99.90;;;;;;4997784;28;20186;-77
2023/01/28 09:03:53;;;;;;;11.90;3.10;;;29.60;99.90;;;;;;5014740;28;20301;-78
2023/01/28 09:06:21;;;;;;;11.63;2.80;;;29.40;99.90;;;;;;5015074;28;20174;-78
2023/01/28 09:08:48;;;;;;;11.60;2.97;;;29.30;99.90;;;;;;5015174;28;20586;-78
2023/01/28 09:11:16;;;;;;;14.23;3.40;;;29.20;99.90;;;;;;5015215;28;20604;-77
2023/01/28 09:13:43;;;;;;;10.00;2.63;;;29.10;99.90;;;;;;5015022;28;20265;-78
2023/01/28 09:16:10;;;;;;;15.00;3.87;;;29.10;99.90;;;;;;5015171;28;20236;-78
2023/01/28 09:18:38;;;;;;;8.87;2.30;;;28.90;99.90;;;;;;5015133;28;20223;-78
2023/01/28 09:21:07;;;;;;;13.03;2.93;;;28.80;99.90;;;;;;5014924;28;20189;-78
2023/01/28 09:23:38;;;;;;;11.07;2.97;;;28.80;99.90;;;;;;5014952;28;20584;-77
2023/01/28 09:26:07;;;;;;;17.80;3.07;;;28.70;99.90;;;;;;5014687;28;20713;-78
2023/01/28 09:28:37;;;;;;;13.37;3.50;;;28.60;99.90;;;;;;4997131;28;20233;-78
2023/01/28 09:31:09;;;;;;;11.83;3.37;;;28.50;99.90;;;;;;5015006;28;20198;-79
2023/01/28 09:33:46;;;;;;;13.63;3.00;;;28.40;99.90;;;;;;5014835;28;20174;-77
2023/01/28 09:36:13;;;;;;;14.93;3.47;;;28.40;99.90;;;;;;5014521;28;20268;-78
2023/01/28 09:38:41;;;;;;;11.47;3.00;;;28.30;99.90;;;;;;5014646;28;20220;-75
2023/01/28 09:44:42;;;;;;;13.93;3.13;;;28.20;99.90;;;;;;5013898;28;20232;-77
2023/01/28 09:47:24;;;;;;;12.77;2.97;;;28.10;99.90;;;;;;4996811;28;20568;-77
2023/01/28 09:49:56;;;;;;;12.77;3.67;;;28.10;99.90;;;;;;4996729;28;20224;-78
2023/01/28 09:52:25;;;;;;;12.30;3.03;;;28.00;99.90;;;;;;5014407;28;20178;-78
2023/01/28 09:54:59;;;;;;;12.10;3.70;;;28.00;99.90;;;;;;5014405;28;20213;-76
2023/01/28 09:57:41;;;;;;;13.17;3.30;;;27.90;99.90;;;;;;5014441;28;20178;-75
2023/01/28 10:00:20;;;;;;;15.97;3.63;;;27.90;99.90;;;;;;5014349;28;20178;-77
2023/01/28 10:03:12;;;;;;;12.23;3.23;;;27.90;99.90;;;;;;5014099;28;20293;-78
2023/01/28 10:05:54;;;;;;;9.73;3.00;;;27.80;99.90;;;;;;5014116;28;20170;-77
2023/01/28 10:08:49;;;;;;;7.33;3.13;;;27.80;99.90;;;;;;5013898;28;20181;-79
2023/01/28 10:12:01;;;;;;;14.37;2.87;;;27.70;99.90;;;;;;5013918;28;20269;-78
2023/01/28 10:14:51;;;;;;;10.00;3.17;;;27.70;99.90;;;;;;4934648;29;20227;-77
2023/01/28 10:17:24;;;;;;;19.60;4.27;;;27.60;99.90;;;;;;4934164;29;20783;-77
2023/01/28 10:20:07;;;;;;;10.87;3.57;;;27.60;99.90;;;;;;4990331;28;20663;-76
2023/01/28 10:22:57;;;;;;;15.90;3.70;;;27.50;99.90;;;;;;5013903;28;20169;-76
2023/01/28 10:25:29;;;;;;;18.77;4.30;;;27.50;99.90;;;;;;5014257;28;20185;-77
2023/01/28 10:27:58;;;;;;;8.97;3.20;;;27.40;99.90;;;;;;5014419;28;20986;-76
2023/01/28 10:30:29;;;;;;;14.13;3.53;;;27.40;99.90;;;;;;4997851;28;20194;-77
2023/01/28 10:33:10;;;;;;;11.03;3.40;;;27.40;99.90;;;;;;5013892;28;20196;-79
2023/01/28 10:35:42;;;;;;;13.10;3.73;;;27.30;99.90;;;;;;5013805;28;20181;-77
2023/01/28 10:38:15;;;;;;;12.30;3.33;;;27.30;99.90;;;;;;5013849;28;20188;-76
2023/01/28 10:40:46;;;;;;;15.70;3.23;;;27.30;99.90;;;;;;5013207;28;20174;-77
2023/01/28 10:43:18;;;;;;;10.73;3.37;;;27.30;99.90;;;;;;4995824;28;20715;-77
2023/01/28 10:45:59;;;;;;;12.43;3.00;;;27.30;99.90;;;;;;4995456;28;20587;-76
2023/01/28 10:48:46;;;;;;;12.97;4.23;;;27.20;99.90;;;;;;5013561;28;20669;-78
2023/01/28 10:51:14;;;;;;;16.33;3.83;;;27.10;99.90;;;;;;5013151;28;20166;-77
2023/01/28 10:53:44;;;;;;;11.17;3.27;;;27.10;99.90;;;;;;5013440;28;20205;-79
2023/01/28 10:56:34;;;;;;;11.00;3.60;;;27.20;99.90;;;;;;4995685;28;20638;-71
2023/01/28 10:59:21;;;;;;;15.40;4.00;;;27.20;99.90;;;;;;5013113;28;20178;-77
2023/01/28 11:01:55;;;;;;;11.07;3.73;;;27.10;99.90;;;;;;5013318;28;20265;-77
2023/01/28 11:04:32;;;;;;;10.80;3.30;;;27.10;99.90;;;;;;5012653;28;20213;-78
2023/01/28 11:07:17;;;;;;;16.10;3.70;;;27.00;99.90;;;;;;5013143;28;20185;-77
2023/01/28 11:09:50;;;;;;;16.80;3.97;;;26.90;99.90;;;;;;5013099;28;20519;-76
2023/01/28 11:12:20;;;;;;;13.83;3.40;;;26.90;99.90;;;;;;5012391;28;20170;-77
2023/01/28 11:14:59;;;;;;;16.67;4.20;;;26.80;99.90;;;;;;5012327;28;20714;-77
2023/01/28 11:17:34;;;;;;;9.80;3.43;;;26.80;99.90;;;;;;5012722;28;20264;-77
2023/01/28 11:20:18;;;;;;;19.57;3.70;;;26.80;99.90;;;;;;4995171;28;20181;-75
2023/01/28 11:22:46;;;;;;;12.53;3.10;;;26.70;99.90;;;;;;5011613;28;20170;-75
2023/01/28 11:25:34;;;;;;;16.60;4.10;;;26.70;99.90;;;;;;5012905;28;20182;-77
2023/01/28 11:28:15;;;;;;;15.07;3.33;;;26.70;99.90;;;;;;4995065;28;20376;-77
2023/01/28 11:30:42;;;;;;;14.27;4.30;;;26.70;99.90;;;;;;5012965;28;20264;-76
2023/01/28 11:33:32;;;;;;;13.73;3.70;;;26.60;99.90;;;;;;5012529;28;20265;-75
2023/01/28 11:36:21;;;;;;;15.73;3.83;;;26.60;99.90;;;;;;5012519;28;20182;-73
2023/01/28 11:38:56;;;;;;;13.47;3.90;;;26.60;99.90;;;;;;5012856;28;20253;-76
2023/01/28 11:41:33;;;;;;;17.43;4.30;;;26.60;99.90;;;;;;4993215;28;20189;-73
2023/01/28 11:44:14;;;;;;;17.87;4.40;;;26.50;99.90;;;;;;4992938;28;20214;-76
2023/01/28 11:47:24;;;;;;;16.20;3.83;;;26.50;99.90;;;;;;4992731;28;20224;-74
2023/01/28 11:50:08;;;;;;;13.40;3.90;;;26.50;99.90;;;;;;4990871;28;20217;-76
2023/01/28 11:52:44;;;;;;;18.20;4.50;;;26.40;99.90;;;;;;5012495;28;20178;-78
2023/01/28 11:55:20;;;;;;;12.27;4.67;;;26.30;99.90;;;;;;5012808;28;20178;-77
2023/01/28 11:58:03;;;;;;;12.13;3.93;;;26.30;99.90;;;;;;5012523;28;20194;-78
2023/01/28 12:00:56;;;;;;;14.20;3.87;;;26.40;99.90;;;;;;5012485;28;20186;-78
2023/01/28 12:03:55;;;;;;;16.30;3.97;;;26.30;99.90;;;;;;5012342;28;20220;-78
2023/01/28 12:06:35;;;;;;;16.70;4.53;;;26.20;99.90;;;;;;4995012;28;20220;-78
2023/01/28 12:09:31;;;;;;;17.73;4.07;;;26.20;99.90;;;;;;5012818;28;20580;-78
2023/01/28 12:12:38;;;;;;;13.03;3.20;;;26.20;99.90;;;;;;5012363;28;20655;-79
2023/01/28 12:15:23;;;;;;;14.33;3.33;;;26.10;99.90;;;;;;4994853;28;20197;-76
2023/01/28 12:18:26;;;;;;;10.47;3.50;;;26.10;99.90;;;;;;4995462;28;20776;-77
2023/01/28 12:21:07;;;;;;;17.17;3.70;;;26.00;99.90;;;;;;5012835;28;20182;-76
2023/01/28 12:23:50;;;;;;;17.87;3.97;;;26.00;99.90;;;;;;4997499;28;20610;-77
2023/01/28 12:26:23;;;;;;;21.07;4.30;;;26.10;99.90;;;;;;5001255;28;20182;-76
2023/01/28 12:29:27;;;;;;;17.77;3.80;;;26.10;99.90;;;;;;5007433;28;20292;-77
2023/01/28 12:31:57;;;;;;;20.67;4.37;;;26.10;99.90;;;;;;5011879;28;20212;-75
2023/01/28 12:34:49;;;;;;;18.27;4.07;;;26.10;99.90;;;;;;4997330;28;20213;-77
2023/01/28 12:37:24;;;;;;;11.20;3.50;;;26.00;99.90;;;;;;5015409;28;20277;-78
2023/01/28 12:40:25;;;;;;;26.23;4.80;;;26.00;99.90;;;;;;5015157;28;20252;-78
2023/01/28 12:43:11;;;;;;;15.67;4.23;;;25.90;99.90;;;;;;4914107;28;20217;-77
2023/01/28 12:45:54;;;;;;;16.90;4.27;;;25.90;99.90;;;;;;5015635;28;20632;-76
2023/01/28 12:48:37;;;;;;;17.10;4.47;;;25.90;99.90;;;;;;5015529;28;20244;-78
2023/01/28 12:51:28;;;;;;;19.93;4.33;;;25.80;99.90;;;;;;5009387;28;20249;-77
2023/01/28 12:54:02;;;;;;;21.53;4.70;;;25.80;99.90;;;;;;5015524;28;20253;-76
2023/01/28 12:56:37;;;;;;;18.40;4.00;;;25.80;99.90;;;;;;5015697;28;20736;-77
2023/01/28 12:59:25;;;;;;;19.37;4.57;;;25.80;99.90;;;;;;5015432;28;20184;-78
2023/01/28 13:02:25;;;;;;;22.93;5.10;;;25.80;99.90;;;;;;4997233;28;20240;-77
2023/01/28 13:04:57;;;;;;;26.10;4.60;;;25.80;99.90;;;;;;5007857;28;20222;-77
2023/01/28 13:07:35;;;;;;;23.53;4.60;;;25.70;99.90;;;;;;5014494;28;20182;-77
2023/01/28 13:10:11;;;;;;;21.87;4.77;;;25.70;99.90;;;;;;5014217;28;20181;-78
2023/01/28 13:12:42;;;;;;;15.33;4.17;;;25.60;99.90;;;;;;5013893;28;20186;-76
2023/01/28 13:15:15;;;;;;;23.77;4.90;;;25.60;99.90;;;;;;5014330;28;20284;-77
2023/01/28 13:18:04;;;;;;;20.10;4.33;;;25.60;99.90;;;;;;5015046;28;20213;-77
2023/01/28 13:20:48;;;;;;;22.07;4.37;;;25.60;99.90;;;;;;5014450;28;20194;-76
2023/01/28 13:23:25;;;;;;;20.10;4.17;;;25.50;99.90;;;;;;4995544;28;20240;-78
2023/01/28 13:25:56;;;;;;;25.83;4.67;;;25.40;99.90;;;;;;5014404;28;20189;-78
2023/01/28 13:28:32;;;;;;;22.17;4.83;;;25.40;99.90;;;;;;5014045;28;20225;-78
2023/01/28 13:31:07;;;;;;;16.90;4.27;;;25.40;99.90;;;;;;5014897;28;20611;-77
2023/01/28 13:33:40;;;;;;;19.27;4.40;;;25.40;99.90;;;;;;5014399;28;20190;-78
2023/01/28 13:36:39;;;;;;;17.23;4.83;;;25.40;99.90;;;;;;5014007;28;20213;-76
2023/01/28 13:39:18;;;;;;;22.20;5.30;;;25.40;99.90;;;;;;5014926;28;20193;-79
2023/01/28 13:41:51;;;;;;;21.60;4.70;;;25.30;99.90;;;;;;5014173;28;20252;-78
2023/01/28 13:44:30;;;;;;;22.00;5.33;;;25.30;99.90;;;;;;5014353;28;20273;-78
2023/01/28 13:47:20;;;;;;;20.43;4.83;;;25.30;99.90;;;;;;5014402;28;20705;-78
2023/01/28 13:50:01;;;;;;;15.90;4.87;;;25.30;99.90;;;;;;5014347;28;20192;-77
2023/01/28 13:52:44;;;;;;;17.50;5.07;;;25.30;99.90;;;;;;5014341;28;20192;-76
2023/01/28 13:55:11;;;;;;;17.67;4.57;;;25.20;99.90;;;;;;5015103;28;20182;-78
2023/01/28 13:58:06;;;;;;;18.40;5.07;;;25.20;99.90;;;;;;5014870;28;20647;-78
2023/01/28 14:00:36;;;;;;;19.10;4.83;;;25.20;99.90;;;;;;5014869;28;20182;-78
2023/01/28 14:03:09;;;;;;;22.57;5.20;;;25.20;99.90;;;;;;5014722;28;20202;-77
2023/01/28 14:06:07;;;;;;;16.33;4.30;;;25.10;99.90;;;;;;5015074;28;20647;-77
2023/01/28 14:08:56;;;;;;;23.77;4.97;;;25.10;99.90;;;;;;4996538;28;20555;-77